Time;durP1;ratioP1;P1;durP2;ratioP2;P2;SDS_P1;SDS_P2;PMS_P1;PMS_P2;Temp;Humidity;BMP_temperature;BMP_pressure;BME280_temperature;BME280_humidity;BME280_pressure;Samples;Min_cycle;Max_cycle;Signal;HPM_P1;HPM_P2
2021/10/11 00:01:45;;;;;;;16.67;2.85;;;;;;;;;;4989931;28;20058;-68
2021/10/11 00:04:12;;;;;;;22.20;4.05;;;;;;;;;;4988816;28;20087;-69
2021/10/11 00:06:38;;;;;;;15.27;2.80;;;;;;;;;;4987403;28;20023;-69
2021/10/11 00:09:04;;;;;;;9.98;2.25;;;;;;;;;;4986978;28;20588;-69
2021/10/11 00:11:30;;;;;;;12.60;2.08;;;;;;;;;;4989934;28;20156;-69
2021/10/11 00:13:56;;;;;;;22.35;4.05;;;;;;;;;;4987920;28;20034;-69
2021/10/11 00:16:23;;;;;;;14.75;3.10;;;;;;;;;;4989784;28;20037;-70
2021/10/11 00:18:49;;;;;;;15.13;2.58;;;;;;;;;;4986816;28;20057;-70
2021/10/11 00:21:16;;;;;;;20.23;2.50;;;;;;;;;;4989503;28;20081;-69
2021/10/11 00:23:44;;;;;;;13.82;2.90;;;;;;;;;;4988959;28;20031;-69
2021/10/11 00:26:10;;;;;;;13.25;2.45;;;;;;;;;;4989448;28;20387;-69
2021/10/11 00:28:36;;;;;;;15.82;2.47;;;;;;;;;;4985939;28;20049;-70
2021/10/11 00:31:02;;;;;;;21.08;2.95;;;;;;;;;;4978214;28;20252;-69
2021/10/11 00:33:28;;;;;;;11.55;2.50;;;;;;;;;;4989946;28;20109;-69
2021/10/11 00:35:54;;;;;;;8.02;2.20;;;;;;;;;;4987257;28;20042;-69
2021/10/11 00:38:20;;;;;;;13.32;2.15;;;;;;;;;;4986771;28;20231;-69
2021/10/11 00:40:46;;;;;;;9.27;2.47;;;;;;;;;;4987290;28;20029;-69
2021/10/11 00:43:12;;;;;;;12.43;2.55;;;;;;;;;;4990475;28;20387;-69
2021/10/11 00:45:38;;;;;;;8.85;1.85;;;;;;;;;;4988448;28;20048;-69
2021/10/11 00:48:05;;;;;;;9.50;2.53;;;;;;;;;;4987510;28;20026;-69
2021/10/11 00:50:31;;;;;;;10.93;2.15;;;;;;;;;;4984169;28;20030;-69
2021/10/11 00:52:57;;;;;;;12.38;2.50;;;;;;;;;;4989649;28;20112;-69
2021/10/11 00:55:23;;;;;;;11.65;2.63;;;;;;;;;;4988985;28;20030;-69
2021/10/11 00:57:49;;;;;;;20.63;3.40;;;;;;;;;;4988746;28;20031;-68
2021/10/11 01:00:15;;;;;;;13.90;2.90;;;;;;;;;;4985641;28;20054;-69
2021/10/11 01:02:41;;;;;;;13.48;2.35;;;;;;;;;;4990382;28;20066;-69
2021/10/11 01:05:08;;;;;;;13.82;2.30;;;;;;;;;;4993950;28;20023;-69
2021/10/11 01:07:34;;;;;;;7.50;2.55;;;;;;;;;;4989420;28;20177;-69
2021/10/11 01:10:00;;;;;;;11.77;2.00;;;;;;;;;;4987449;28;20546;-68
2021/10/11 01:12:26;;;;;;;12.48;1.73;;;;;;;;;;4990113;28;20479;-68
2021/10/11 01:14:52;;;;;;;13.02;2.60;;;;;;;;;;4993626;28;20081;-69
2021/10/11 01:17:18;;;;;;;12.10;2.20;;;;;;;;;;4991932;28;20027;-69
2021/10/11 01:19:48;;;;;;;9.93;2.00;;;;;;;;;;4986956;28;20537;-69
2021/10/11 01:22:15;;;;;;;11.05;2.40;;;;;;;;;;4989822;28;20049;-69
2021/10/11 01:24:41;;;;;;;9.88;1.50;;;;;;;;;;4993930;28;20022;-68
2021/10/11 01:27:07;;;;;;;11.70;2.03;;;;;;;;;;4992524;28;20027;-69
2021/10/11 01:29:33;;;;;;;8.32;1.63;;;;;;;;;;4987592;28;20076;-69
2021/10/11 01:31:59;;;;;;;14.02;2.40;;;;;;;;;;4991781;28;20031;-69
2021/10/11 01:34:25;;;;;;;12.02;2.10;;;;;;;;;;4989930;28;20038;-68
2021/10/11 01:36:51;;;;;;;13.48;2.63;;;;;;;;;;4989292;28;20042;-69
2021/10/11 01:39:17;;;;;;;10.05;1.73;;;;;;;;;;4985153;28;20025;-69
2021/10/11 01:41:43;;;;;;;13.88;3.63;;;;;;;;;;4991017;28;20081;-69
2021/10/11 01:44:09;;;;;;;11.75;2.08;;;;;;;;;;4991116;28;20033;-69
2021/10/11 01:46:36;;;;;;;9.02;1.58;;;;;;;;;;4992985;28;20014;-69
2021/10/11 01:49:02;;;;;;;15.18;3.15;;;;;;;;;;4988667;28;20030;-69
2021/10/11 01:51:28;;;;;;;15.32;2.25;;;;;;;;;;4990643;28;20030;-69
2021/10/11 01:53:54;;;;;;;13.85;2.22;;;;;;;;;;4991482;28;20137;-69
2021/10/11 01:56:20;;;;;;;13.10;2.42;;;;;;;;;;4990185;28;20478;-69
2021/10/11 01:58:46;;;;;;;13.07;2.70;;;;;;;;;;4982220;28;20212;-69
2021/10/11 02:01:12;;;;;;;14.15;2.53;;;;;;;;;;4990040;28;20026;-69
2021/10/11 02:03:38;;;;;;;16.13;2.40;;;;;;;;;;4991243;28;20033;-69
2021/10/11 02:06:04;;;;;;;15.52;2.55;;;;;;;;;;4989922;28;20034;-68
2021/10/11 02:08:30;;;;;;;14.02;2.30;;;;;;;;;;4989164;28;20076;-69
2021/10/11 02:10:56;;;;;;;18.67;2.50;;;;;;;;;;4990465;28;20033;-69
2021/10/11 02:13:22;;;;;;;11.32;2.20;;;;;;;;;;4989993;28;20022;-69
2021/10/11 02:15:49;;;;;;;15.63;2.58;;;;;;;;;;4990869;28;20092;-69
2021/10/11 02:18:15;;;;;;;14.70;2.67;;;;;;;;;;4988953;28;20274;-69
2021/10/11 02:20:41;;;;;;;15.80;3.00;;;;;;;;;;4989023;28;20026;-68
2021/10/11 02:23:07;;;;;;;17.42;2.78;;;;;;;;;;4988894;28;20027;-69
2021/10/11 02:25:34;;;;;;;9.23;1.80;;;;;;;;;;4991048;28;20026;-69
2021/10/11 02:28:00;;;;;;;12.75;2.00;;;;;;;;;;4989820;28;20033;-68
2021/10/11 02:30:26;;;;;;;8.93;2.03;;;;;;;;;;4988147;28;20018;-69
2021/10/11 02:32:52;;;;;;;10.68;2.00;;;;;;;;;;4989635;28;20035;-70
2021/10/11 02:35:20;;;;;;;15.10;2.00;;;;;;;;;;4990767;28;20037;-69
2021/10/11 02:37:47;;;;;;;13.88;2.40;;;;;;;;;;4989584;28;20097;-69
2021/10/11 02:40:13;;;;;;;18.27;2.17;;;;;;;;;;4985885;28;20018;-69
2021/10/11 02:42:39;;;;;;;11.20;2.40;;;;;;;;;;4990093;28;20022;-69
2021/10/11 02:45:05;;;;;;;12.65;2.45;;;;;;;;;;4990768;28;20026;-69
2021/10/11 02:47:31;;;;;;;11.55;1.95;;;;;;;;;;4991864;28;20076;-69
2021/10/11 02:49:57;;;;;;;12.27;1.88;;;;;;;;;;4987989;28;20038;-68
2021/10/11 02:52:27;;;;;;;10.52;1.75;;;;;;;;;;4987720;28;20022;-69
2021/10/11 02:54:54;;;;;;;16.63;2.53;;;;;;;;;;4988920;28;20064;-69
2021/10/11 02:57:20;;;;;;;15.70;2.60;;;;;;;;;;4990939;28;20053;-69
2021/10/11 02:59:46;;;;;;;14.43;2.72;;;;;;;;;;4986572;28;20030;-69
2021/10/11 03:02:12;;;;;;;13.32;2.50;;;;;;;;;;4990919;28;20026;-68
2021/10/11 03:04:38;;;;;;;12.13;2.17;;;;;;;;;;4990859;28;20023;-68
2021/10/11 03:07:04;;;;;;;10.98;1.88;;;;;;;;;;4988387;28;20108;-69
2021/10/11 03:09:30;;;;;;;10.27;2.00;;;;;;;;;;4988800;28;20037;-69
2021/10/11 03:11:56;;;;;;;16.10;2.10;;;;;;;;;;4987240;28;20253;-69
2021/10/11 03:14:22;;;;;;;18.20;2.63;;;;;;;;;;4988459;28;20033;-69
2021/10/11 03:16:48;;;;;;;20.08;2.47;;;;;;;;;;4990672;28;20152;-69
2021/10/11 03:19:14;;;;;;;11.65;2.53;;;;;;;;;;4987447;28;20074;-69
2021/10/11 03:21:40;;;;;;;14.73;2.20;;;;;;;;;;4988103;28;20026;-69
2021/10/11 03:24:06;;;;;;;25.90;3.90;;;;;;;;;;4984075;28;20038;-69
2021/10/11 03:26:32;;;;;;;12.85;2.03;;;;;;;;;;4989857;28;20077;-69
2021/10/11 03:28:58;;;;;;;14.00;2.47;;;;;;;;;;4985268;28;20133;-69
2021/10/11 03:31:24;;;;;;;12.65;2.15;;;;;;;;;;4989775;28;20031;-69
2021/10/11 03:33:51;;;;;;;14.55;2.15;;;;;;;;;;4990902;28;20474;-69
2021/10/11 03:36:17;;;;;;;13.63;2.40;;;;;;;;;;4989325;28;20038;-69
2021/10/11 03:38:43;;;;;;;12.32;2.40;;;;;;;;;;4985862;28;20030;-69
2021/10/11 03:41:09;;;;;;;14.85;2.20;;;;;;;;;;4987484;28;20035;-69
2021/10/11 03:43:35;;;;;;;13.90;2.75;;;;;;;;;;4990380;28;20030;-69
2021/10/11 03:46:01;;;;;;;14.55;2.15;;;;;;;;;;4990523;28;20034;-69
2021/10/11 03:48:27;;;;;;;15.60;2.88;;;;;;;;;;4988571;28;20045;-69
2021/10/11 03:50:53;;;;;;;9.57;2.17;;;;;;;;;;4988825;28;20081;-69
2021/10/11 03:53:19;;;;;;;18.50;4.00;;;;;;;;;;4988971;28;20022;-69
2021/10/11 03:55:45;;;;;;;10.32;2.70;;;;;;;;;;4988505;28;20026;-69
2021/10/11 03:58:11;;;;;;;8.98;2.10;;;;;;;;;;4987396;28;20018;-69
2021/10/11 04:00:38;;;;;;;15.20;2.33;;;;;;;;;;4985332;28;20033;-68
2021/10/11 04:03:06;;;;;;;7.80;2.22;;;;;;;;;;4987930;28;20614;-69
2021/10/11 04:05:32;;;;;;;16.10;3.38;;;;;;;;;;4989892;28;20049;-69
2021/10/11 04:08:04;;;;;;;17.55;2.40;;;;;;;;;;4987655;28;20038;-69
2021/10/11 04:10:34;;;;;;;;;;;;;;;;;;4989655;28;20031;-69
2021/10/11 04:13:02;;;;;;;14.48;2.90;;;;;;;;;;4986924;28;19917;-69
2021/10/11 04:15:28;;;;;;;17.10;3.00;;;;;;;;;;4989347;28;20026;-69
2021/10/11 04:17:55;;;;;;;15.02;2.65;;;;;;;;;;4989174;28;20113;-69
2021/10/11 04:20:22;;;;;;;7.28;2.10;;;;;;;;;;4984783;28;20482;-69
2021/10/11 04:22:48;;;;;;;11.98;3.05;;;;;;;;;;4987020;28;20038;-68
2021/10/11 04:25:14;;;;;;;16.63;3.55;;;;;;;;;;4988326;28;20023;-69
2021/10/11 04:27:40;;;;;;;11.57;2.80;;;;;;;;;;4987262;28;20042;-69
2021/10/11 04:30:07;;;;;;;11.05;2.72;;;;;;;;;;4984484;28;20040;-69
2021/10/11 04:32:33;;;;;;;10.38;2.50;;;;;;;;;;4990351;28;20483;-69
2021/10/11 04:34:59;;;;;;;11.73;2.83;;;;;;;;;;4990550;28;20030;-68
2021/10/11 04:37:25;;;;;;;14.50;2.92;;;;;;;;;;4993692;28;20073;-69
2021/10/11 04:39:51;;;;;;;15.55;3.83;;;;;;;;;;4986814;28;20035;-68
2021/10/11 04:42:17;;;;;;;21.02;3.30;;;;;;;;;;4988833;28;20037;-68
2021/10/11 04:44:43;;;;;;;23.20;3.42;;;;;;;;;;4993954;28;20027;-69
2021/10/11 04:47:09;;;;;;;11.60;2.60;;;;;;;;;;4990163;28;20022;-69
2021/10/11 04:49:36;;;;;;;11.55;2.75;;;;;;;;;;4988730;28;20022;-67
2021/10/11 04:52:02;;;;;;;12.23;2.92;;;;;;;;;;4992973;28;20499;-69
2021/10/11 04:54:28;;;;;;;11.73;2.75;;;;;;;;;;4994621;28;20116;-68
2021/10/11 04:56:54;;;;;;;14.35;3.55;;;;;;;;;;4990749;28;20042;-68
2021/10/11 04:59:20;;;;;;;10.52;2.58;;;;;;;;;;4994775;28;20030;-69
2021/10/11 05:01:46;;;;;;;12.68;2.63;;;;;;;;;;4994672;28;20034;-69
2021/10/11 05:04:12;;;;;;;19.83;3.85;;;;;;;;;;4998782;28;20022;-68
2021/10/11 05:06:38;;;;;;;11.02;2.40;;;;;;;;;;4997994;28;20030;-69
2021/10/11 05:09:04;;;;;;;20.90;2.90;;;;;;;;;;4992628;28;20038;-69
2021/10/11 05:11:30;;;;;;;11.25;2.90;;;;;;;;;;4993119;28;20038;-69
2021/10/11 05:13:56;;;;;;;12.45;3.20;;;;;;;;;;5000078;28;20045;-68
2021/10/11 05:16:24;;;;;;;13.48;3.08;;;;;;;;;;4993017;28;20038;-68
2021/10/11 05:18:50;;;;;;;14.75;2.90;;;;;;;;;;4986059;28;20035;-69
2021/10/11 05:21:16;;;;;;;18.35;3.75;;;;;;;;;;4985320;28;20037;-68
2021/10/11 05:23:42;;;;;;;13.63;2.85;;;;;;;;;;4992645;28;20030;-68
2021/10/11 05:26:08;;;;;;;18.98;2.90;;;;;;;;;;4989999;28;20022;-68
2021/10/11 05:28:34;;;;;;;13.73;3.25;;;;;;;;;;5083319;22;20058;-71
2021/10/11 05:31:01;;;;;;;18.75;3.72;;;;;;;;;;4967606;28;20037;-72
2021/10/11 05:33:27;;;;;;;14.57;3.10;;;;;;;;;;4974824;28;20174;-71
2021/10/11 05:35:53;;;;;;;17.83;3.08;;;;;;;;;;4972486;28;20457;-71
2021/10/11 05:38:20;;;;;;;10.63;2.80;;;;;;;;;;4972099;28;20037;-71
2021/10/11 05:40:46;;;;;;;13.30;3.28;;;;;;;;;;4971509;28;20046;-71
2021/10/11 05:43:12;;;;;;;14.80;2.92;;;;;;;;;;4972970;28;20125;-71
2021/10/11 05:45:38;;;;;;;17.17;3.20;;;;;;;;;;4990200;22;20117;-70
2021/10/11 05:48:04;;;;;;;14.70;2.83;;;;;;;;;;4970924;28;20027;-70
2021/10/11 05:50:30;;;;;;;11.93;2.65;;;;;;;;;;4976590;28;20510;-69
2021/10/11 05:52:58;;;;;;;14.80;3.10;;;;;;;;;;5032159;22;20042;-70
2021/10/11 05:55:24;;;;;;;18.83;2.88;;;;;;;;;;4979065;28;20018;-70
2021/10/11 05:57:50;;;;;;;13.90;3.40;;;;;;;;;;4978843;28;20023;-70
2021/10/11 06:00:16;;;;;;;10.50;2.58;;;;;;;;;;4972740;28;20026;-70
2021/10/11 06:02:42;;;;;;;17.33;3.35;;;;;;;;;;4985779;28;20372;-70
2021/10/11 06:05:08;;;;;;;13.05;3.03;;;;;;;;;;4981929;28;20034;-70
2021/10/11 06:07:34;;;;;;;14.82;3.13;;;;;;;;;;4992050;28;20077;-70
2021/10/11 06:10:00;;;;;;;15.77;2.75;;;;;;;;;;4982002;28;20049;-70
2021/10/11 06:12:26;;;;;;;15.50;3.20;;;;;;;;;;4986285;28;20029;-70
2021/10/11 06:14:52;;;;;;;16.40;2.85;;;;;;;;;;4990087;28;20042;-70
2021/10/11 06:17:19;;;;;;;15.80;2.83;;;;;;;;;;4980431;28;20042;-71
2021/10/11 06:19:45;;;;;;;11.80;2.65;;;;;;;;;;4977559;28;20051;-71
2021/10/11 06:22:11;;;;;;;15.10;3.75;;;;;;;;;;4991676;28;20050;-71
2021/10/11 06:24:37;;;;;;;13.43;3.13;;;;;;;;;;4992578;28;20029;-71
2021/10/11 06:27:03;;;;;;;16.63;3.20;;;;;;;;;;4982692;28;20026;-71
2021/10/11 06:29:30;;;;;;;18.42;2.75;;;;;;;;;;4984068;28;20026;-71
2021/10/11 06:31:56;;;;;;;15.77;2.45;;;;;;;;;;4986586;28;20042;-71
2021/10/11 06:34:22;;;;;;;15.85;3.30;;;;;;;;;;4984397;28;20041;-71
2021/10/11 06:36:48;;;;;;;12.48;3.20;;;;;;;;;;4976452;28;20378;-70
2021/10/11 06:39:14;;;;;;;15.30;2.67;;;;;;;;;;4987550;28;20511;-70
2021/10/11 06:41:40;;;;;;;14.68;3.72;;;;;;;;;;4985722;28;20405;-71
2021/10/11 06:44:06;;;;;;;14.98;3.05;;;;;;;;;;4974919;28;20480;-71
2021/10/11 06:46:32;;;;;;;18.63;3.47;;;;;;;;;;4984302;28;20045;-71
2021/10/11 06:48:59;;;;;;;10.90;2.85;;;;;;;;;;4980422;28;20027;-70
2021/10/11 06:51:25;;;;;;;13.80;4.28;;;;;;;;;;4980872;28;20038;-71
2021/10/11 06:53:51;;;;;;;17.92;3.00;;;;;;;;;;4972038;28;20112;-71
2021/10/11 06:56:17;;;;;;;15.85;2.97;;;;;;;;;;4981324;28;20052;-71
2021/10/11 06:58:43;;;;;;;16.25;3.00;;;;;;;;;;4978395;28;20385;-71
2021/10/11 07:01:09;;;;;;;21.88;4.95;;;;;;;;;;4979498;28;20492;-71
2021/10/11 07:03:37;;;;;;;15.90;3.22;;;;;;;;;;4977180;28;20110;-71
2021/10/11 07:06:06;;;;;;;13.68;3.13;;;;;;;;;;4976245;28;20034;-71
2021/10/11 07:08:32;;;;;;;13.30;3.53;;;;;;;;;;4980889;28;20120;-71
2021/10/11 07:10:58;;;;;;;13.00;2.65;;;;;;;;;;4975336;28;20085;-70
2021/10/11 07:13:25;;;;;;;17.10;3.65;;;;;;;;;;4979795;28;20105;-70
2021/10/11 07:15:51;;;;;;;17.55;4.25;;;;;;;;;;4977834;28;20101;-71
2021/10/11 07:18:18;;;;;;;15.38;4.13;;;;;;;;;;4977808;28;20129;-71
2021/10/11 07:20:45;;;;;;;15.32;3.78;;;;;;;;;;4979688;28;20043;-71
2021/10/11 07:23:12;;;;;;;10.00;2.55;;;;;;;;;;4986177;28;20038;-71
2021/10/11 07:25:38;;;;;;;18.10;3.00;;;;;;;;;;4986552;28;20054;-71
2021/10/11 07:28:04;;;;;;;14.88;3.42;;;;;;;;;;4975657;28;20034;-72
2021/10/11 07:30:31;;;;;;;15.05;3.05;;;;;;;;;;4981549;28;20113;-71
2021/10/11 07:32:58;;;;;;;14.88;2.65;;;;;;;;;;4976984;28;20064;-71
2021/10/11 07:35:24;;;;;;;14.55;3.03;;;;;;;;;;4979408;28;20038;-71
2021/10/11 07:37:50;;;;;;;17.65;3.50;;;;;;;;;;4980055;28;20030;-71
2021/10/11 07:40:17;;;;;;;18.13;3.25;;;;;;;;;;4973332;28;20026;-71
2021/10/11 07:42:43;;;;;;;15.05;2.83;;;;;;;;;;4986664;28;20023;-71
2021/10/11 07:45:09;;;;;;;12.25;2.75;;;;;;;;;;4990168;28;20053;-71
2021/10/11 07:47:35;;;;;;;13.98;3.17;;;;;;;;;;4990237;28;20603;-71
2021/10/11 07:50:01;;;;;;;11.98;2.45;;;;;;;;;;4978059;28;20046;-71
2021/10/11 07:52:27;;;;;;;22.75;3.72;;;;;;;;;;4971462;28;20031;-71
2021/10/11 07:54:53;;;;;;;11.55;2.28;;;;;;;;;;4972352;28;20058;-71
2021/10/11 07:57:19;;;;;;;12.35;2.05;;;;;;;;;;4981764;28;20022;-71
2021/10/11 07:59:45;;;;;;;15.73;4.13;;;;;;;;;;4971983;28;20076;-71
2021/10/11 08:02:11;;;;;;;11.40;2.20;;;;;;;;;;4979391;28;20023;-70
2021/10/11 08:04:37;;;;;;;20.60;2.88;;;;;;;;;;4978263;28;20074;-71
2021/10/11 08:07:03;;;;;;;16.15;2.40;;;;;;;;;;4984337;28;20023;-71
2021/10/11 08:09:29;;;;;;;11.98;1.73;;;;;;;;;;4985737;28;20057;-69
2021/10/11 08:11:55;;;;;;;8.02;2.08;;;;;;;;;;4972036;28;20057;-71
2021/10/11 08:14:22;;;;;;;12.82;2.35;;;;;;;;;;4987746;28;20416;-71
2021/10/11 08:16:48;;;;;;;15.82;2.60;;;;;;;;;;4986512;28;20042;-71
2021/10/11 08:19:14;;;;;;;9.65;2.10;;;;;;;;;;4989045;28;20026;-71
2021/10/11 08:21:40;;;;;;;10.23;2.15;;;;;;;;;;4993007;28;20118;-71
2021/10/11 08:24:06;;;;;;;16.20;2.60;;;;;;;;;;4993545;28;20033;-71
2021/10/11 08:26:34;;;;;;;22.00;3.50;;;;;;;;;;4980598;28;20034;-71
2021/10/11 08:29:01;;;;;;;13.05;2.60;;;;;;;;;;4980163;28;20129;-71
2021/10/11 08:31:28;;;;;;;17.77;3.53;;;;;;;;;;4974204;28;20073;-71
2021/10/11 08:33:54;;;;;;;19.00;4.50;;;;;;;;;;4984979;28;20037;-71
2021/10/11 08:36:20;;;;;;;11.25;2.88;;;;;;;;;;4983411;28;20129;-71
2021/10/11 08:38:46;;;;;;;24.27;3.85;;;;;;;;;;4982537;28;20034;-71
2021/10/11 08:41:12;;;;;;;13.45;2.20;;;;;;;;;;4978397;28;20022;-72
2021/10/11 08:43:39;;;;;;;14.25;2.10;;;;;;;;;;4984580;28;20170;-71
2021/10/11 08:46:05;;;;;;;16.27;2.65;;;;;;;;;;4984001;28;20018;-71
2021/10/11 08:48:33;;;;;;;10.73;2.10;;;;;;;;;;4975595;28;20030;-72
2021/10/11 08:50:59;;;;;;;7.38;1.67;;;;;;;;;;4973636;28;20117;-71
2021/10/11 08:53:25;;;;;;;10.88;1.90;;;;;;;;;;4979725;28;20149;-71
2021/10/11 08:55:51;;;;;;;14.43;3.28;;;;;;;;;;4984072;28;20026;-71
2021/10/11 08:58:17;;;;;;;8.00;1.88;;;;;;;;;;4991482;28;20018;-71
2021/10/11 09:00:43;;;;;;;10.23;2.00;;;;;;;;;;4984272;28;20494;-71
2021/10/11 09:03:10;;;;;;;13.07;1.40;;;;;;;;;;4982674;28;20026;-72
2021/10/11 09:05:38;;;;;;;14.43;1.73;;;;;;;;;;4992050;28;20507;-72
2021/10/11 09:08:05;;;;;;;11.60;2.15;;;;;;;;;;4984960;28;20038;-71
2021/10/11 09:10:32;;;;;;;9.57;1.58;;;;;;;;;;4979360;28;20045;-71
2021/10/11 09:12:59;;;;;;;12.00;2.50;;;;;;;;;;4976633;28;20086;-71
2021/10/11 09:15:29;;;;;;;11.55;1.70;;;;;;;;;;4977050;28;20034;-71
2021/10/11 09:18:03;;;;;;;9.15;1.48;;;;;;;;;;4976959;28;20067;-71
2021/10/11 09:20:30;;;;;;;9.55;1.65;;;;;;;;;;4971566;28;21050;-70
2021/10/11 09:22:57;;;;;;;7.22;1.25;;;;;;;;;;4973632;28;20031;-71
2021/10/11 09:25:31;;;;;;;11.48;1.80;;;;;;;;;;4971066;28;20077;-72
2021/10/11 09:27:57;;;;;;;10.20;2.13;;;;;;;;;;4978083;28;20038;-71
2021/10/11 09:30:28;;;;;;;9.27;1.75;;;;;;;;;;4981236;28;20040;-71
2021/10/11 09:33:21;;;;;;;8.20;1.48;;;;;;;;;;4974133;28;20035;-72
2021/10/11 09:35:48;;;;;;;13.02;1.98;;;;;;;;;;4970252;28;20566;-72
2021/10/11 09:38:25;;;;;;;14.43;3.00;;;;;;;;;;4972513;28;20035;-72
2021/10/11 09:40:52;;;;;;;10.80;1.70;;;;;;;;;;4979974;28;20041;-71
2021/10/11 09:43:20;;;;;;;13.43;2.08;;;;;;;;;;4983696;28;20034;-71
2021/10/11 09:45:46;;;;;;;8.85;1.90;;;;;;;;;;4979238;28;20106;-71
2021/10/11 09:48:12;;;;;;;12.13;1.67;;;;;;;;;;4968197;28;20390;-71
2021/10/11 09:50:39;;;;;;;8.10;1.45;;;;;;;;;;4973874;28;20030;-71
2021/10/11 09:53:06;;;;;;;14.23;1.95;;;;;;;;;;4979315;28;20047;-71
2021/10/11 09:55:37;;;;;;;10.45;2.13;;;;;;;;;;4981795;28;20069;-72
2021/10/11 09:58:03;;;;;;;10.15;1.48;;;;;;;;;;4973298;28;20122;-71
2021/10/11 10:00:29;;;;;;;12.43;1.65;;;;;;;;;;4979285;28;20023;-71
2021/10/11 10:02:56;;;;;;;8.00;1.45;;;;;;;;;;4973108;28;20019;-72
2021/10/11 10:05:28;;;;;;;11.35;1.60;;;;;;;;;;4970883;28;20207;-71
2021/10/11 10:07:56;;;;;;;9.75;1.83;;;;;;;;;;4981926;28;20034;-72
2021/10/11 10:10:24;;;;;;;10.57;1.70;;;;;;;;;;4977380;28;20127;-71
2021/10/11 10:12:51;;;;;;;6.85;1.17;;;;;;;;;;4969219;28;20029;-71
2021/10/11 10:15:27;;;;;;;6.88;1.55;;;;;;;;;;4983091;28;20034;-72
2021/10/11 10:18:04;;;;;;;8.70;1.60;;;;;;;;;;4981216;28;20031;-71
2021/10/11 10:20:30;;;;;;;12.07;1.77;;;;;;;;;;4984882;28;20031;-71
2021/10/11 10:22:56;;;;;;;11.45;1.58;;;;;;;;;;4974445;28;20157;-71
2021/10/11 10:25:23;;;;;;;6.55;1.98;;;;;;;;;;4979445;28;20027;-70
2021/10/11 10:27:50;;;;;;;10.85;1.58;;;;;;;;;;4975409;28;20433;-70
2021/10/11 10:30:18;;;;;;;9.68;1.75;;;;;;;;;;4978549;28;20037;-71
2021/10/11 10:32:57;;;;;;;13.98;1.88;;;;;;;;;;4986557;28;20042;-71
2021/10/11 10:35:24;;;;;;;9.23;1.50;;;;;;;;;;4969123;28;20049;-71
2021/10/11 10:37:50;;;;;;;12.07;2.28;;;;;;;;;;4979555;28;20170;-71
2021/10/11 10:40:18;;;;;;;7.53;1.70;;;;;;;;;;4978142;28;20034;-72
2021/10/11 10:42:47;;;;;;;8.52;1.90;;;;;;;;;;4979868;28;20023;-71
2021/10/11 10:45:17;;;;;;;10.88;2.25;;;;;;;;;;4983489;28;20118;-71
2021/10/11 10:47:44;;;;;;;11.50;2.20;;;;;;;;;;4980145;28;20025;-71
2021/10/11 10:50:18;;;;;;;13.30;2.13;;;;;;;;;;4973232;28;20027;-72
2021/10/11 10:52:55;;;;;;;17.25;2.10;;;;;;;;;;4986573;28;20055;-72
2021/10/11 10:55:21;;;;;;;13.57;2.45;;;;;;;;;;4978352;28;20034;-72
2021/10/11 10:57:48;;;;;;;8.95;1.60;;;;;;;;;;4980132;28;20108;-71
2021/10/11 11:00:18;;;;;;;11.25;2.13;;;;;;;;;;4976996;28;20030;-71
2021/10/11 11:02:49;;;;;;;10.30;1.38;;;;;;;;;;4978389;28;20241;-71
2021/10/11 11:05:15;;;;;;;10.80;2.00;;;;;;;;;;4975557;28;20440;-71
2021/10/11 11:07:43;;;;;;;10.48;1.85;;;;;;;;;;4985255;28;20026;-71
2021/10/11 11:10:14;;;;;;;5.30;1.50;;;;;;;;;;4972756;28;20405;-71
2021/10/11 11:12:42;;;;;;;12.65;2.63;;;;;;;;;;4986683;28;20026;-72
2021/10/11 11:15:10;;;;;;;12.52;1.75;;;;;;;;;;4979200;28;20034;-71
2021/10/11 11:17:38;;;;;;;11.48;2.00;;;;;;;;;;4979640;28;20031;-72
2021/10/11 11:20:10;;;;;;;9.20;1.50;;;;;;;;;;4979691;28;20446;-72
2021/10/11 11:22:37;;;;;;;10.93;2.15;;;;;;;;;;4991184;28;20517;-71
2021/10/11 11:25:06;;;;;;;17.98;2.30;;;;;;;;;;4977446;28;20053;-73
2021/10/11 11:27:32;;;;;;;6.85;1.50;;;;;;;;;;4984302;28;20081;-72
2021/10/11 11:29:59;;;;;;;6.20;1.42;;;;;;;;;;4978161;28;20121;-71
2021/10/11 11:32:25;;;;;;;11.02;1.50;;;;;;;;;;4976708;28;20109;-72
2021/10/11 11:34:52;;;;;;;12.38;2.58;;;;;;;;;;4976861;28;20081;-72
2021/10/11 11:37:18;;;;;;;12.13;1.83;;;;;;;;;;4974392;28;20056;-72
2021/10/11 11:39:44;;;;;;;12.50;2.05;;;;;;;;;;4971508;28;20026;-71
2021/10/11 11:42:10;;;;;;;15.45;1.75;;;;;;;;;;4994566;28;20444;-71
2021/10/11 11:44:36;;;;;;;13.27;2.45;;;;;;;;;;4977813;28;20026;-71
2021/10/11 11:47:07;;;;;;;12.70;1.63;;;;;;;;;;4979730;28;20023;-72
2021/10/11 11:49:37;;;;;;;18.85;2.22;;;;;;;;;;4988129;28;20030;-71
2021/10/11 11:52:13;;;;;;;8.90;1.75;;;;;;;;;;4978920;28;20027;-73
2021/10/11 11:54:40;;;;;;;10.00;1.98;;;;;;;;;;4980115;28;20054;-72
2021/10/11 11:57:06;;;;;;;8.00;1.60;;;;;;;;;;4978319;28;20539;-72
2021/10/11 11:59:33;;;;;;;8.68;1.85;;;;;;;;;;4975221;28;20613;-72
2021/10/11 12:02:00;;;;;;;15.43;1.70;;;;;;;;;;4978868;28;20027;-72
2021/10/11 12:04:26;;;;;;;18.33;2.92;;;;;;;;;;4983908;28;20019;-72
2021/10/11 12:06:53;;;;;;;12.75;2.30;;;;;;;;;;4979323;28;20034;-73
2021/10/11 12:09:22;;;;;;;13.35;2.00;;;;;;;;;;4978398;28;20562;-72
2021/10/11 12:11:48;;;;;;;14.82;1.80;;;;;;;;;;4976010;28;20512;-72
2021/10/11 12:14:15;;;;;;;11.80;3.38;;;;;;;;;;4977447;28;20057;-72
2021/10/11 12:16:41;;;;;;;9.27;1.80;;;;;;;;;;4988857;28;20034;-73
2021/10/11 12:19:07;;;;;;;16.50;2.05;;;;;;;;;;4968147;28;20029;-71
2021/10/11 12:21:33;;;;;;;9.70;1.80;;;;;;;;;;4974254;28;20055;-72
2021/10/11 12:24:01;;;;;;;11.43;2.67;;;;;;;;;;4978579;28;20049;-72
2021/10/11 12:26:27;;;;;;;8.50;1.33;;;;;;;;;;4976249;28;20031;-71
2021/10/11 12:28:54;;;;;;;12.52;1.52;;;;;;;;;;4985155;28;20033;-72
2021/10/11 12:31:21;;;;;;;16.90;2.30;;;;;;;;;;4984103;28;20035;-71
2021/10/11 12:33:48;;;;;;;11.45;2.17;;;;;;;;;;4971848;28;20054;-75
2021/10/11 12:36:14;;;;;;;10.38;2.22;;;;;;;;;;4974714;28;20038;-73
2021/10/11 12:38:40;;;;;;;15.30;2.63;;;;;;;;;;4982394;28;20069;-72
2021/10/11 12:41:11;;;;;;;13.07;2.22;;;;;;;;;;4984072;28;20042;-72
2021/10/11 12:43:37;;;;;;;15.70;2.67;;;;;;;;;;4977881;28;20026;-72
2021/10/11 12:46:13;;;;;;;10.77;2.22;;;;;;;;;;4974701;28;20184;-70
2021/10/11 12:48:50;;;;;;;14.13;2.40;;;;;;;;;;4976657;28;20487;-72
2021/10/11 12:51:35;;;;;;;11.23;1.63;;;;;;;;;;4963346;28;20034;-72
2021/10/11 12:54:10;;;;;;;11.38;1.80;;;;;;;;;;4974423;28;20461;-72
2021/10/11 12:56:38;;;;;;;8.02;2.20;;;;;;;;;;4975851;28;20393;-71
2021/10/11 12:59:05;;;;;;;16.02;3.13;;;;;;;;;;4972655;28;20035;-72
2021/10/11 13:01:32;;;;;;;9.63;1.85;;;;;;;;;;4985000;28;20022;-72
2021/10/11 13:03:58;;;;;;;16.02;2.55;;;;;;;;;;4986611;28;20109;-71
2021/10/11 13:06:25;;;;;;;11.65;1.92;;;;;;;;;;4988377;28;20023;-72
2021/10/11 13:08:51;;;;;;;11.60;2.20;;;;;;;;;;4983043;28;20102;-72
2021/10/11 13:11:18;;;;;;;17.77;2.05;;;;;;;;;;4985299;28;20022;-72
2021/10/11 13:13:45;;;;;;;17.63;2.25;;;;;;;;;;4983783;28;20432;-72
2021/10/11 13:16:11;;;;;;;10.80;3.10;;;;;;;;;;4977421;28;20019;-73
2021/10/11 13:18:37;;;;;;;15.35;2.80;;;;;;;;;;4977556;28;20026;-72
2021/10/11 13:21:03;;;;;;;13.25;2.25;;;;;;;;;;4987072;28;20452;-73
2021/10/11 13:23:29;;;;;;;13.02;2.05;;;;;;;;;;4976330;28;20117;-72
2021/10/11 13:25:55;;;;;;;15.60;1.90;;;;;;;;;;4979628;28;20030;-74
2021/10/11 13:28:21;;;;;;;15.90;2.08;;;;;;;;;;4975033;28;20090;-73
2021/10/11 14:28:23;;;;;;;8.23;2.30;;;;;;;;;;4970807;28;20148;-73
2021/10/11 14:31:05;;;;;;;18.05;2.13;;;;;;;;;;4973088;28;20034;-73
2021/10/11 14:33:54;;;;;;;13.90;2.10;;;;;;;;;;4969599;28;20081;-74
2021/10/11 15:59:20;;;;;;;17.08;2.72;;;;;;;;;;4969572;28;20042;-73
2021/10/11 16:04:21;;;;;;;13.25;2.88;;;;;;;;;;4964480;28;20027;-73
2021/10/11 16:06:47;;;;;;;10.20;2.28;;;;;;;;;;4984861;28;20042;-74
2021/10/11 16:09:15;;;;;;;9.65;1.95;;;;;;;;;;4967804;28;20204;-74
2021/10/11 16:11:41;;;;;;;12.68;1.95;;;;;;;;;;4968095;28;20093;-73
2021/10/11 16:14:07;;;;;;;17.83;2.33;;;;;;;;;;4969282;28;20118;-74
2021/10/11 16:16:33;;;;;;;16.65;1.73;;;;;;;;;;4961784;28;20031;-74
2021/10/11 16:18:59;;;;;;;22.90;3.20;;;;;;;;;;4959611;28;20031;-74
2021/10/11 16:21:25;;;;;;;14.07;2.78;;;;;;;;;;4965280;28;20103;-74
2021/10/11 16:23:51;;;;;;;10.43;2.40;;;;;;;;;;4969753;28;20488;-73
2021/10/11 16:26:17;;;;;;;13.38;2.90;;;;;;;;;;4959795;28;20030;-73
2021/10/11 16:28:44;;;;;;;12.02;3.13;;;;;;;;;;4965736;28;20055;-73
2021/10/11 16:31:11;;;;;;;17.73;2.58;;;;;;;;;;4965052;28;20102;-73
2021/10/11 16:33:37;;;;;;;10.45;2.40;;;;;;;;;;4962535;28;20074;-73
2021/10/11 16:36:07;;;;;;;10.02;2.25;;;;;;;;;;4955246;28;20035;-73
2021/10/11 16:38:33;;;;;;;16.48;2.72;;;;;;;;;;4987442;23;20143;-71
2021/10/11 16:40:59;;;;;;;11.40;2.10;;;;;;;;;;4992307;28;20049;-73
2021/10/11 16:43:25;;;;;;;9.52;1.90;;;;;;;;;;4988079;28;20018;-73
2021/10/11 16:45:51;;;;;;;12.57;1.90;;;;;;;;;;4986192;28;20541;-73
2021/10/11 16:48:17;;;;;;;20.83;2.10;;;;;;;;;;4980086;28;20015;-72
2021/10/11 16:50:43;;;;;;;9.88;2.03;;;;;;;;;;4986186;28;20036;-72
2021/10/11 16:53:09;;;;;;;9.60;2.03;;;;;;;;;;4991600;28;20066;-72
2021/10/11 16:55:36;;;;;;;17.02;2.70;;;;;;;;;;4985309;28;20093;-72